sensor_id;sensor_type;location;lat;lon;timestamp;pressure;altitude;pressure_sealevel;temperature;humidity
12146;BME280;6136;47.032;15.398;2023-08-24T00:00:26;97738.34;;;22.06;100.00
12146;BME280;6136;47.032;15.398;2023-08-24T00:02:54;97744.91;;;22.04;100.00
12146;BME280;6136;47.032;15.398;2023-08-24T00:05:23;97745.41;;;21.99;100.00
12146;BME280;6136;47.032;15.398;2023-08-24T00:07:52;97739.09;;;21.91;100.00
12146;BME280;6136;47.032;15.398;2023-08-24T00:10:20;97740.25;;;21.88;100.00
12146;BME280;6136;47.032;15.398;2023-08-24T00:12:49;97745.34;;;21.91;100.00
12146;BME280;6136;47.032;15.398;2023-08-24T00:15:17;97749.88;;;21.91;100.00
12146;BME280;6136;47.032;15.398;2023-08-24T00:17:45;97741.78;;;21.91;100.00
12146;BME280;6136;47.032;15.398;2023-08-24T00:20:14;97746.34;;;21.90;100.00
12146;BME280;6136;47.032;15.398;2023-08-24T00:22:42;97740.59;;;21.85;100.00
12146;BME280;6136;47.032;15.398;2023-08-24T00:25:12;97748.00;;;21.83;100.00
12146;BME280;6136;47.032;15.398;2023-08-24T00:27:41;97744.44;;;21.83;100.00
12146;BME280;6136;47.032;15.398;2023-08-24T00:30:10;97736.34;;;21.83;100.00
12146;BME280;6136;47.032;15.398;2023-08-24T00:32:38;97739.91;;;21.83;100.00
12146;BME280;6136;47.032;15.398;2023-08-24T00:35:08;97740.91;;;21.82;100.00
12146;BME280;6136;47.032;15.398;2023-08-24T00:37:37;97741.06;;;21.81;100.00
12146;BME280;6136;47.032;15.398;2023-08-24T00:40:07;97740.34;;;21.79;100.00
12146;BME280;6136;47.032;15.398;2023-08-24T00:42:39;97739.84;;;21.75;100.00
12146;BME280;6136;47.032;15.398;2023-08-24T00:45:09;97743.72;;;21.73;100.00
12146;BME280;6136;47.032;15.398;2023-08-24T00:47:38;97741.00;;;21.73;100.00
12146;BME280;6136;47.032;15.398;2023-08-24T00:50:09;97731.72;;;21.67;100.00
12146;BME280;6136;47.032;15.398;2023-08-24T00:52:40;97739.16;;;21.73;100.00
12146;BME280;6136;47.032;15.398;2023-08-24T00:55:09;97736.47;;;21.73;100.00
12146;BME280;6136;47.032;15.398;2023-08-24T00:57:40;97736.81;;;21.70;100.00
12146;BME280;6136;47.032;15.398;2023-08-24T01:00:09;97734.41;;;21.67;100.00
12146;BME280;6136;47.032;15.398;2023-08-24T01:02:38;97730.03;;;21.66;100.00
12146;BME280;6136;47.032;15.398;2023-08-24T01:05:07;97731.50;;;21.60;100.00
12146;BME280;6136;47.032;15.398;2023-08-24T01:07:38;97727.28;;;21.58;100.00
12146;BME280;6136;47.032;15.398;2023-08-24T01:10:09;97732.00;;;21.56;100.00
12146;BME280;6136;47.032;15.398;2023-08-24T01:13:00;97730.13;;;21.56;100.00
12146;BME280;6136;47.032;15.398;2023-08-24T01:15:35;97729.97;;;21.58;100.00
12146;BME280;6136;47.032;15.398;2023-08-24T01:18:08;97723.91;;;21.56;100.00
12146;BME280;6136;47.032;15.398;2023-08-24T01:20:40;97727.63;;;21.55;100.00
12146;BME280;6136;47.032;15.398;2023-08-24T01:23:19;97719.69;;;21.53;100.00
12146;BME280;6136;47.032;15.398;2023-08-24T01:25:53;97727.94;;;21.52;100.00
12146;BME280;6136;47.032;15.398;2023-08-24T01:28:24;97729.94;;;21.50;100.00
12146;BME280;6136;47.032;15.398;2023-08-24T01:30:53;97732.81;;;21.48;100.00
12146;BME280;6136;47.032;15.398;2023-08-24T01:33:21;97736.34;;;21.49;100.00
12146;BME280;6136;47.032;15.398;2023-08-24T01:35:52;97735.31;;;21.50;100.00
12146;BME280;6136;47.032;15.398;2023-08-24T01:38:20;97737.72;;;21.53;100.00
12146;BME280;6136;47.032;15.398;2023-08-24T01:40:53;97728.78;;;21.52;100.00
12146;BME280;6136;47.032;15.398;2023-08-24T01:43:29;97735.00;;;21.53;100.00
12146;BME280;6136;47.032;15.398;2023-08-24T01:46:11;97737.41;;;21.56;100.00
12146;BME280;6136;47.032;15.398;2023-08-24T01:48:42;97733.66;;;21.57;100.00
12146;BME280;6136;47.032;15.398;2023-08-24T01:51:11;97735.53;;;21.56;100.00
12146;BME280;6136;47.032;15.398;2023-08-24T01:53:40;97737.41;;;21.56;100.00
12146;BME280;6136;47.032;15.398;2023-08-24T01:56:09;97741.75;;;21.57;100.00
12146;BME280;6136;47.032;15.398;2023-08-24T01:58:39;97731.31;;;21.54;100.00
12146;BME280;6136;47.032;15.398;2023-08-24T02:03:37;97724.59;;;21.58;100.00
12146;BME280;6136;47.032;15.398;2023-08-24T02:06:07;97715.97;;;21.54;100.00
12146;BME280;6136;47.032;15.398;2023-08-24T02:08:35;97713.44;;;21.53;100.00
12146;BME280;6136;47.032;15.398;2023-08-24T02:11:03;97718.53;;;21.56;100.00
12146;BME280;6136;47.032;15.398;2023-08-24T02:13:32;97727.28;;;21.58;100.00
12146;BME280;6136;47.032;15.398;2023-08-24T02:16:02;97716.81;;;21.55;100.00
12146;BME280;6136;47.032;15.398;2023-08-24T02:18:31;97720.53;;;21.54;100.00
12146;BME280;6136;47.032;15.398;2023-08-24T02:21:00;97716.28;;;21.51;100.00
12146;BME280;6136;47.032;15.398;2023-08-24T02:23:34;97716.56;;;21.40;100.00
12146;BME280;6136;47.032;15.398;2023-08-24T02:26:02;97714.88;;;21.39;100.00
12146;BME280;6136;47.032;15.398;2023-08-24T02:28:30;97715.03;;;21.38;100.00
12146;BME280;6136;47.032;15.398;2023-08-24T02:31:01;97717.03;;;21.36;100.00
12146;BME280;6136;47.032;15.398;2023-08-24T02:33:30;97717.38;;;21.33;100.00
12146;BME280;6136;47.032;15.398;2023-08-24T02:35:58;97717.69;;;21.29;100.00
12146;BME280;6136;47.032;15.398;2023-08-24T02:38:28;97717.81;;;21.28;100.00
12146;BME280;6136;47.032;15.398;2023-08-24T02:41:03;97715.63;;;21.23;100.00
12146;BME280;6136;47.032;15.398;2023-08-24T02:43:32;97706.13;;;21.19;100.00
12146;BME280;6136;47.032;15.398;2023-08-24T02:46:03;97713.84;;;21.14;100.00
12146;BME280;6136;47.032;15.398;2023-08-24T02:48:32;97711.28;;;21.13;100.00
12146;BME280;6136;47.032;15.398;2023-08-24T02:51:02;97723.25;;;21.10;100.00
12146;BME280;6136;47.032;15.398;2023-08-24T02:53:31;97726.09;;;21.09;100.00
12146;BME280;6136;47.032;15.398;2023-08-24T02:56:00;97732.97;;;21.03;100.00
12146;BME280;6136;47.032;15.398;2023-08-24T02:58:29;97724.03;;;21.03;100.00
12146;BME280;6136;47.032;15.398;2023-08-24T03:00:59;97724.47;;;20.98;100.00
12146;BME280;6136;47.032;15.398;2023-08-24T03:03:33;97728.50;;;20.94;100.00
12146;BME280;6136;47.032;15.398;2023-08-24T03:06:03;97730.97;;;20.87;100.00
12146;BME280;6136;47.032;15.398;2023-08-24T03:08:34;97733.81;;;20.86;100.00
12146;BME280;6136;47.032;15.398;2023-08-24T03:11:02;97741.22;;;20.84;100.00
12146;BME280;6136;47.032;15.398;2023-08-24T03:13:33;97742.53;;;20.80;100.00
12146;BME280;6136;47.032;15.398;2023-08-24T03:16:06;97743.22;;;20.82;100.00
12146;BME280;6136;47.032;15.398;2023-08-24T03:18:37;97740.53;;;20.82;100.00
12146;BME280;6136;47.032;15.398;2023-08-24T03:21:06;97738.13;;;20.79;100.00
12146;BME280;6136;47.032;15.398;2023-08-24T03:23:35;97742.53;;;20.80;100.00
12146;BME280;6136;47.032;15.398;2023-08-24T03:26:03;97743.69;;;20.77;100.00
12146;BME280;6136;47.032;15.398;2023-08-24T03:28:32;97746.50;;;20.76;100.00
12146;BME280;6136;47.032;15.398;2023-08-24T03:31:00;97747.84;;;20.72;100.00
12146;BME280;6136;47.032;15.398;2023-08-24T03:33:29;97746.28;;;20.69;100.00
12146;BME280;6136;47.032;15.398;2023-08-24T03:35:59;97745.78;;;20.66;100.00
12146;BME280;6136;47.032;15.398;2023-08-24T03:38:27;97748.91;;;20.61;100.00
12146;BME280;6136;47.032;15.398;2023-08-24T03:41:00;97752.06;;;20.57;100.00
12146;BME280;6136;47.032;15.398;2023-08-24T03:43:31;97746.97;;;20.53;100.00
12146;BME280;6136;47.032;15.398;2023-08-24T03:45:59;97742.22;;;20.47;100.00
12146;BME280;6136;47.032;15.398;2023-08-24T03:48:28;97748.28;;;20.49;100.00
12146;BME280;6136;47.032;15.398;2023-08-24T03:50:56;97752.47;;;20.44;100.00
12146;BME280;6136;47.032;15.398;2023-08-24T03:53:26;97740.59;;;20.37;100.00
12146;BME280;6136;47.032;15.398;2023-08-24T03:55:55;97747.66;;;20.38;100.00
12146;BME280;6136;47.032;15.398;2023-08-24T03:58:23;97752.22;;;20.37;100.00
12146;BME280;6136;47.032;15.398;2023-08-24T04:00:52;97747.13;;;20.34;100.00
12146;BME280;6136;47.032;15.398;2023-08-24T04:03:21;97748.13;;;20.33;100.00
12146;BME280;6136;47.032;15.398;2023-08-24T04:05:51;97754.47;;;20.32;100.00
12146;BME280;6136;47.032;15.398;2023-08-24T04:08:19;97749.09;;;20.32;100.00
12146;BME280;6136;47.032;15.398;2023-08-24T04:10:49;97754.59;;;20.31;100.00
12146;BME280;6136;47.032;15.398;2023-08-24T04:13:18;97751.09;;;20.30;100.00
12146;BME280;6136;47.032;15.398;2023-08-24T04:15:46;97751.09;;;20.30;100.00
12146;BME280;6136;47.032;15.398;2023-08-24T04:18:14;97750.06;;;20.31;100.00
12146;BME280;6136;47.032;15.398;2023-08-24T04:20:42;97754.59;;;20.31;100.00
12146;BME280;6136;47.032;15.398;2023-08-24T04:23:13;97758.16;;;20.31;100.00
12146;BME280;6136;47.032;15.398;2023-08-24T04:25:41;97753.09;;;20.28;100.00
12146;BME280;6136;47.032;15.398;2023-08-24T04:28:11;97762.16;;;20.27;100.00
12146;BME280;6136;47.032;15.398;2023-08-24T04:30:39;97758.31;;;20.30;100.00
12146;BME280;6136;47.032;15.398;2023-08-24T04:33:07;97754.78;;;20.29;100.00
12146;BME280;6136;47.032;15.398;2023-08-24T04:35:36;97753.63;;;20.32;100.00
12146;BME280;6136;47.032;15.398;2023-08-24T04:38:04;97770.22;;;20.37;100.00
12146;BME280;6136;47.032;15.398;2023-08-24T04:40:45;97766.19;;;20.41;100.00
12146;BME280;6136;47.032;15.398;2023-08-24T04:43:15;97775.13;;;20.41;100.00
12146;BME280;6136;47.032;15.398;2023-08-24T04:45:46;97769.47;;;20.44;100.00
12146;BME280;6136;47.032;15.398;2023-08-24T04:48:14;97775.22;;;20.49;100.00
12146;BME280;6136;47.032;15.398;2023-08-24T04:50:44;97772.75;;;20.56;100.00
12146;BME280;6136;47.032;15.398;2023-08-24T04:53:15;97774.69;;;20.64;100.00
12146;BME280;6136;47.032;15.398;2023-08-24T04:55:43;97768.69;;;20.70;100.00
12146;BME280;6136;47.032;15.398;2023-08-24T04:58:12;97777.69;;;20.78;100.00
12146;BME280;6136;47.032;15.398;2023-08-24T05:04:55;97789.78;;;20.92;100.00
12146;BME280;6136;47.032;15.398;2023-08-24T05:11:35;97782.06;;;20.97;100.00
12146;BME280;6136;47.032;15.398;2023-08-24T05:19:06;97788.44;;;21.14;100.00
12146;BME280;6136;47.032;15.398;2023-08-24T05:30:50;97781.66;;;21.45;100.00
12146;BME280;6136;47.032;15.398;2023-08-24T05:37:47;97780.28;;;21.67;100.00
12146;BME280;6136;47.032;15.398;2023-08-24T05:41:08;97778.66;;;21.82;100.00
12146;BME280;6136;47.032;15.398;2023-08-24T05:44:52;97778.78;;;21.98;100.00
12146;BME280;6136;47.032;15.398;2023-08-24T05:52:26;97786.88;;;22.40;100.00
12146;BME280;6136;47.032;15.398;2023-08-24T05:56:07;97790.63;;;22.56;100.00
12146;BME280;6136;47.032;15.398;2023-08-24T06:03:46;97793.28;;;22.90;100.00
12146;BME280;6136;47.032;15.398;2023-08-24T06:10:15;97790.09;;;23.27;100.00
12146;BME280;6136;47.032;15.398;2023-08-24T06:14:31;97785.03;;;23.48;100.00
12146;BME280;6136;47.032;15.398;2023-08-24T06:22:21;97793.88;;;24.05;100.00
12146;BME280;6136;47.032;15.398;2023-08-24T06:26:13;97786.03;;;24.26;100.00
12146;BME280;6136;47.032;15.398;2023-08-24T06:29:42;97788.97;;;24.48;100.00
12146;BME280;6136;47.032;15.398;2023-08-24T06:33:50;97792.63;;;24.63;100.00
12146;BME280;6136;47.032;15.398;2023-08-24T06:37:22;97799.41;;;24.90;100.00
12146;BME280;6136;47.032;15.398;2023-08-24T06:40:50;97800.38;;;25.20;100.00
12146;BME280;6136;47.032;15.398;2023-08-24T06:44:27;97795.44;;;25.46;100.00
12146;BME280;6136;47.032;15.398;2023-08-24T06:47:48;97790.06;;;25.61;100.00
12146;BME280;6136;47.032;15.398;2023-08-24T06:56:02;97795.91;;;26.02;100.00
12146;BME280;6136;47.032;15.398;2023-08-24T07:03:11;97796.28;;;26.57;100.00
12146;BME280;6136;47.032;15.398;2023-08-24T07:06:45;97800.03;;;26.56;99.88
12146;BME280;6136;47.032;15.398;2023-08-24T07:10:36;97793.97;;;26.90;100.00
12146;BME280;6136;47.032;15.398;2023-08-24T07:14:23;97791.22;;;27.26;96.47
12146;BME280;6136;47.032;15.398;2023-08-24T07:18:06;97790.00;;;27.35;92.99
12146;BME280;6136;47.032;15.398;2023-08-24T07:21:40;97787.66;;;27.75;91.44
12146;BME280;6136;47.032;15.398;2023-08-24T07:25:41;97785.59;;;28.11;87.75
12146;BME280;6136;47.032;15.398;2023-08-24T07:29:36;97787.91;;;28.49;84.26
12146;BME280;6136;47.032;15.398;2023-08-24T07:32:58;97789.97;;;28.88;83.30
12146;BME280;6136;47.032;15.398;2023-08-24T07:36:18;97780.63;;;29.83;73.18
12146;BME280;6136;47.032;15.398;2023-08-24T07:38:47;97780.09;;;31.34;66.30
12146;BME280;6136;47.032;15.398;2023-08-24T07:41:15;97771.06;;;33.41;56.62
12146;BME280;6136;47.032;15.398;2023-08-24T07:43:45;97774.31;;;34.66;52.87
12146;BME280;6136;47.032;15.398;2023-08-24T07:46:14;97768.38;;;35.42;49.10
12146;BME280;6136;47.032;15.398;2023-08-24T07:48:43;97774.59;;;35.66;47.30
12146;BME280;6136;47.032;15.398;2023-08-24T07:51:11;97772.28;;;35.92;47.00
12146;BME280;6136;47.032;15.398;2023-08-24T07:53:39;97768.91;;;36.23;44.95
12146;BME280;6136;47.032;15.398;2023-08-24T07:56:07;97764.19;;;36.84;41.96
12146;BME280;6136;47.032;15.398;2023-08-24T07:58:35;97762.28;;;37.97;41.31
12146;BME280;6136;47.032;15.398;2023-08-24T08:01:04;97760.59;;;38.33;38.89
12146;BME280;6136;47.032;15.398;2023-08-24T08:03:33;97765.03;;;38.34;38.66
12146;BME280;6136;47.032;15.398;2023-08-24T08:06:02;97769.03;;;38.11;39.75
12146;BME280;6136;47.032;15.398;2023-08-24T08:08:31;97761.81;;;37.73;39.67
12146;BME280;6136;47.032;15.398;2023-08-24T08:11:01;97761.03;;;37.78;39.89
12146;BME280;6136;47.032;15.398;2023-08-24T08:13:29;97764.66;;;40.06;34.85
12146;BME280;6136;47.032;15.398;2023-08-24T08:16:02;97766.31;;;38.63;39.05
12146;BME280;6136;47.032;15.398;2023-08-24T08:18:33;97770.19;;;38.62;39.54
12146;BME280;6136;47.032;15.398;2023-08-24T08:21:03;97761.56;;;38.54;39.76
12146;BME280;6136;47.032;15.398;2023-08-24T08:23:36;97769.38;;;40.30;35.47
12146;BME280;6136;47.032;15.398;2023-08-24T08:26:04;97766.81;;;39.17;37.68
12146;BME280;6136;47.032;15.398;2023-08-24T08:28:32;97771.06;;;39.81;37.32
12146;BME280;6136;47.032;15.398;2023-08-24T08:31:01;97768.84;;;39.93;36.07
12146;BME280;6136;47.032;15.398;2023-08-24T08:33:30;97769.13;;;39.91;37.04
12146;BME280;6136;47.032;15.398;2023-08-24T08:35:59;97765.50;;;39.76;36.87
12146;BME280;6136;47.032;15.398;2023-08-24T08:38:28;97758.09;;;40.81;34.64
12146;BME280;6136;47.032;15.398;2023-08-24T08:40:56;97758.97;;;41.70;33.28
12146;BME280;6136;47.032;15.398;2023-08-24T08:43:29;97750.19;;;41.92;34.46
12146;BME280;6136;47.032;15.398;2023-08-24T08:45:58;97745.25;;;43.26;31.38
12146;BME280;6136;47.032;15.398;2023-08-24T08:48:29;97745.41;;;42.50;32.46
12146;BME280;6136;47.032;15.398;2023-08-24T08:51:00;97746.69;;;40.88;34.83
12146;BME280;6136;47.032;15.398;2023-08-24T08:53:29;97742.00;;;41.66;34.72
12146;BME280;6136;47.032;15.398;2023-08-24T08:55:57;97745.00;;;43.79;30.01
12146;BME280;6136;47.032;15.398;2023-08-24T08:58:31;97749.63;;;43.70;30.45
12146;BME280;6136;47.032;15.398;2023-08-24T09:01:03;97751.25;;;43.52;30.36
12146;BME280;6136;47.032;15.398;2023-08-24T09:03:33;97747.22;;;41.39;33.41
12146;BME280;6136;47.032;15.398;2023-08-24T09:06:05;97748.28;;;39.74;36.11
12146;BME280;6136;47.032;15.398;2023-08-24T09:08:34;97741.44;;;40.76;35.96
12146;BME280;6136;47.032;15.398;2023-08-24T09:11:02;97748.88;;;41.40;33.88
12146;BME280;6136;47.032;15.398;2023-08-24T09:13:30;97748.69;;;41.65;33.17
12146;BME280;6136;47.032;15.398;2023-08-24T09:16:03;97739.53;;;43.55;30.76
12146;BME280;6136;47.032;15.398;2023-08-24T09:18:35;97740.97;;;42.20;32.44
12146;BME280;6136;47.032;15.398;2023-08-24T09:21:09;97737.22;;;42.06;33.09
12146;BME280;6136;47.032;15.398;2023-08-24T09:23:38;97733.59;;;42.05;34.31
12146;BME280;6136;47.032;15.398;2023-08-24T09:26:11;97729.56;;;41.20;34.03
12146;BME280;6136;47.032;15.398;2023-08-24T09:28:42;97723.34;;;42.01;34.00
12146;BME280;6136;47.032;15.398;2023-08-24T09:31:11;97718.41;;;44.28;29.43
12146;BME280;6136;47.032;15.398;2023-08-24T09:33:43;97733.66;;;43.57;32.00
12146;BME280;6136;47.032;15.398;2023-08-24T09:36:14;97714.22;;;45.43;27.85
12146;BME280;6136;47.032;15.398;2023-08-24T09:38:46;97712.75;;;44.60;28.72
12146;BME280;6136;47.032;15.398;2023-08-24T09:41:16;97712.53;;;44.70;29.02
12146;BME280;6136;47.032;15.398;2023-08-24T09:43:44;97718.00;;;44.21;29.84
12146;BME280;6136;47.032;15.398;2023-08-24T09:46:18;97715.44;;;43.92;30.35
12146;BME280;6136;47.032;15.398;2023-08-24T09:48:53;97706.84;;;42.33;32.42
12146;BME280;6136;47.032;15.398;2023-08-24T09:51:26;97701.28;;;41.75;32.71
12146;BME280;6136;47.032;15.398;2023-08-24T09:53:57;97693.56;;;41.67;34.23
12146;BME280;6136;47.032;15.398;2023-08-24T09:56:28;97702.16;;;41.37;34.12
12146;BME280;6136;47.032;15.398;2023-08-24T09:59:00;97695.75;;;40.97;35.12
12146;BME280;6136;47.032;15.398;2023-08-24T10:01:32;97692.41;;;40.95;35.32
12146;BME280;6136;47.032;15.398;2023-08-24T10:04:04;97689.63;;;42.26;34.47
12146;BME280;6136;47.032;15.398;2023-08-24T10:06:36;97688.97;;;43.01;32.70
12146;BME280;6136;47.032;15.398;2023-08-24T10:09:08;97683.63;;;42.61;33.04
12146;BME280;6136;47.032;15.398;2023-08-24T10:11:43;97682.41;;;42.49;32.00
12146;BME280;6136;47.032;15.398;2023-08-24T10:14:20;97676.97;;;41.57;33.54
12146;BME280;6136;47.032;15.398;2023-08-24T10:16:49;97679.59;;;40.99;34.29
12146;BME280;6136;47.032;15.398;2023-08-24T10:19:18;97674.31;;;41.42;34.73
12146;BME280;6136;47.032;15.398;2023-08-24T10:21:51;97674.09;;;42.20;33.06
12146;BME280;6136;47.032;15.398;2023-08-24T10:24:23;97667.75;;;41.62;33.97
12146;BME280;6136;47.032;15.398;2023-08-24T10:26:52;97671.75;;;41.12;35.39
12146;BME280;6136;47.032;15.398;2023-08-24T10:29:22;97666.75;;;42.29;33.36
12146;BME280;6136;47.032;15.398;2023-08-24T10:31:51;97670.44;;;42.01;33.15
12146;BME280;6136;47.032;15.398;2023-08-24T10:34:19;97668.19;;;42.50;34.21
12146;BME280;6136;47.032;15.398;2023-08-24T10:36:49;97664.09;;;42.43;32.36
12146;BME280;6136;47.032;15.398;2023-08-24T10:39:26;97660.94;;;43.29;30.15
12146;BME280;6136;47.032;15.398;2023-08-24T10:41:56;97661.63;;;42.41;31.69
12146;BME280;6136;47.032;15.398;2023-08-24T10:44:25;97657.56;;;41.47;33.36
12146;BME280;6136;47.032;15.398;2023-08-24T10:47:11;97650.31;;;41.51;34.51
12146;BME280;6136;47.032;15.398;2023-08-24T10:49:40;97650.19;;;42.61;31.07
12146;BME280;6136;47.032;15.398;2023-08-24T10:52:20;97647.78;;;42.55;30.50
12146;BME280;6136;47.032;15.398;2023-08-24T10:54:50;97653.91;;;42.09;31.57
12146;BME280;6136;47.032;15.398;2023-08-24T10:57:23;97650.63;;;42.50;31.97
12146;BME280;6136;47.032;15.398;2023-08-24T11:00:03;97642.78;;;42.33;32.16
12146;BME280;6136;47.032;15.398;2023-08-24T11:02:43;97643.66;;;41.76;33.24
12146;BME280;6136;47.032;15.398;2023-08-24T11:05:17;97633.78;;;41.89;33.38
12146;BME280;6136;47.032;15.398;2023-08-24T11:07:52;97631.56;;;44.10;29.18
12146;BME280;6136;47.032;15.398;2023-08-24T11:10:21;97624.66;;;42.54;31.87
12146;BME280;6136;47.032;15.398;2023-08-24T11:13:09;97641.78;;;42.67;31.63
12146;BME280;6136;47.032;15.398;2023-08-24T11:15:40;97627.94;;;44.10;29.12
12146;BME280;6136;47.032;15.398;2023-08-24T11:18:13;97635.81;;;44.49;29.16
12146;BME280;6136;47.032;15.398;2023-08-24T11:20:45;97624.91;;;43.79;30.96
12146;BME280;6136;47.032;15.398;2023-08-24T11:23:16;97636.16;;;43.74;30.98
12146;BME280;6136;47.032;15.398;2023-08-24T11:25:45;97631.22;;;43.01;31.95
12146;BME280;6136;47.032;15.398;2023-08-24T11:28:17;97617.28;;;44.26;29.53
12146;BME280;6136;47.032;15.398;2023-08-24T11:30:46;97621.97;;;42.87;30.93
12146;BME280;6136;47.032;15.398;2023-08-24T11:33:14;97620.00;;;42.69;32.30
12146;BME280;6136;47.032;15.398;2023-08-24T11:35:45;97613.88;;;44.29;29.65
12146;BME280;6136;47.032;15.398;2023-08-24T11:38:13;97620.03;;;43.71;31.21
12146;BME280;6136;47.032;15.398;2023-08-24T11:40:43;97612.25;;;43.35;32.81
12146;BME280;6136;47.032;15.398;2023-08-24T11:43:11;97619.81;;;42.41;32.04
12146;BME280;6136;47.032;15.398;2023-08-24T11:45:39;97607.19;;;40.21;37.49
12146;BME280;6136;47.032;15.398;2023-08-24T11:48:09;97617.72;;;41.57;34.11
12146;BME280;6136;47.032;15.398;2023-08-24T11:50:38;97607.91;;;41.64;33.85
12146;BME280;6136;47.032;15.398;2023-08-24T11:53:06;97602.94;;;39.49;38.93
12146;BME280;6136;47.032;15.398;2023-08-24T11:55:39;97607.34;;;40.94;35.22
12146;BME280;6136;47.032;15.398;2023-08-24T11:58:26;97611.19;;;39.75;36.51
12146;BME280;6136;47.032;15.398;2023-08-24T12:00:55;97609.50;;;38.62;39.07
12146;BME280;6136;47.032;15.398;2023-08-24T12:03:23;97602.50;;;37.77;40.80
12146;BME280;6136;47.032;15.398;2023-08-24T12:05:51;97598.53;;;36.94;42.33
12146;BME280;6136;47.032;15.398;2023-08-24T12:08:20;97601.00;;;39.14;38.34
12146;BME280;6136;47.032;15.398;2023-08-24T12:10:48;97594.66;;;40.83;34.79
12146;BME280;6136;47.032;15.398;2023-08-24T12:13:16;97590.34;;;41.93;32.15
12146;BME280;6136;47.032;15.398;2023-08-24T12:15:46;97586.84;;;43.05;29.74
12146;BME280;6136;47.032;15.398;2023-08-24T12:18:17;97574.69;;;43.14;30.12
12146;BME280;6136;47.032;15.398;2023-08-24T12:20:47;97572.50;;;43.11;29.94
12146;BME280;6136;47.032;15.398;2023-08-24T12:23:15;97585.50;;;42.22;31.87
12146;BME280;6136;47.032;15.398;2023-08-24T12:25:43;97580.38;;;41.58;32.48
12146;BME280;6136;47.032;15.398;2023-08-24T12:28:13;97564.56;;;42.24;30.46
12146;BME280;6136;47.032;15.398;2023-08-24T12:30:47;97565.53;;;41.09;33.11
12146;BME280;6136;47.032;15.398;2023-08-24T12:33:23;97560.38;;;41.27;33.18
12146;BME280;6136;47.032;15.398;2023-08-24T12:35:51;97558.69;;;40.92;34.01
12146;BME280;6136;47.032;15.398;2023-08-24T12:38:19;97557.56;;;41.84;31.92
12146;BME280;6136;47.032;15.398;2023-08-24T12:40:47;97544.75;;;41.83;32.21
12146;BME280;6136;47.032;15.398;2023-08-24T12:43:16;97543.69;;;40.93;35.72
12146;BME280;6136;47.032;15.398;2023-08-24T12:45:44;97550.69;;;40.46;35.13
12146;BME280;6136;47.032;15.398;2023-08-24T12:48:13;97555.63;;;40.93;35.39
12146;BME280;6136;47.032;15.398;2023-08-24T12:50:42;97544.31;;;42.19;32.30
12146;BME280;6136;47.032;15.398;2023-08-24T12:53:10;97551.69;;;42.52;30.88
12146;BME280;6136;47.032;15.398;2023-08-24T12:55:39;97541.31;;;40.32;34.93
12146;BME280;6136;47.032;15.398;2023-08-24T12:58:07;97534.13;;;40.75;35.67
12146;BME280;6136;47.032;15.398;2023-08-24T13:00:36;97543.00;;;42.35;31.57
12146;BME280;6136;47.032;15.398;2023-08-24T13:03:04;97534.91;;;40.81;35.63
12146;BME280;6136;47.032;15.398;2023-08-24T13:05:33;97529.75;;;40.10;35.60
12146;BME280;6136;47.032;15.398;2023-08-24T13:08:02;97521.84;;;40.76;34.97
12146;BME280;6136;47.032;15.398;2023-08-24T13:10:31;97527.78;;;41.32;34.04
12146;BME280;6136;47.032;15.398;2023-08-24T13:13:01;97519.72;;;41.31;33.94
12146;BME280;6136;47.032;15.398;2023-08-24T13:15:30;97518.88;;;42.07;31.65
12146;BME280;6136;47.032;15.398;2023-08-24T13:17:58;97515.84;;;42.03;31.50
12146;BME280;6136;47.032;15.398;2023-08-24T13:20:26;97524.06;;;42.13;31.29
12146;BME280;6136;47.032;15.398;2023-08-24T13:22:56;97512.28;;;41.26;32.63
12146;BME280;6136;47.032;15.398;2023-08-24T13:25:24;97504.00;;;40.87;33.92
12146;BME280;6136;47.032;15.398;2023-08-24T13:27:52;97496.09;;;40.26;35.90
12146;BME280;6136;47.032;15.398;2023-08-24T13:30:23;97487.81;;;40.11;34.24
12146;BME280;6136;47.032;15.398;2023-08-24T13:32:51;97491.97;;;40.14;34.29
12146;BME280;6136;47.032;15.398;2023-08-24T13:35:20;97504.81;;;40.05;35.16
12146;BME280;6136;47.032;15.398;2023-08-24T13:37:49;97487.84;;;40.89;32.64
12146;BME280;6136;47.032;15.398;2023-08-24T13:40:19;97484.72;;;40.67;33.24
12146;BME280;6136;47.032;15.398;2023-08-24T13:42:47;97490.25;;;39.69;35.62
12146;BME280;6136;47.032;15.398;2023-08-24T13:45:15;97483.97;;;39.22;36.30
12146;BME280;6136;47.032;15.398;2023-08-24T13:47:43;97485.75;;;39.83;35.55
12146;BME280;6136;47.032;15.398;2023-08-24T13:50:12;97474.09;;;40.74;34.31
12146;BME280;6136;47.032;15.398;2023-08-24T13:52:40;97482.53;;;40.59;34.73
12146;BME280;6136;47.032;15.398;2023-08-24T13:55:09;97482.50;;;39.61;35.98
12146;BME280;6136;47.032;15.398;2023-08-24T13:57:42;97474.03;;;39.11;38.46
12146;BME280;6136;47.032;15.398;2023-08-24T14:00:11;97476.94;;;37.88;40.07
12146;BME280;6136;47.032;15.398;2023-08-24T14:02:39;97475.44;;;38.89;38.27
12146;BME280;6136;47.032;15.398;2023-08-24T14:05:09;97486.09;;;37.99;39.76
12146;BME280;6136;47.032;15.398;2023-08-24T14:07:37;97473.72;;;37.49;42.66
12146;BME280;6136;47.032;15.398;2023-08-24T14:10:06;97479.16;;;36.92;42.82
12146;BME280;6136;47.032;15.398;2023-08-24T14:12:35;97476.50;;;36.70;44.14
12146;BME280;6136;47.032;15.398;2023-08-24T14:15:06;97472.56;;;36.29;44.03
12146;BME280;6136;47.032;15.398;2023-08-24T14:17:34;97480.78;;;35.75;46.32
12146;BME280;6136;47.032;15.398;2023-08-24T14:20:03;97476.09;;;35.16;46.88
12146;BME280;6136;47.032;15.398;2023-08-24T14:22:32;97471.22;;;34.84;47.66
12146;BME280;6136;47.032;15.398;2023-08-24T14:25:00;97468.97;;;34.48;51.04
12146;BME280;6136;47.032;15.398;2023-08-24T14:27:28;97485.16;;;34.44;49.82
12146;BME280;6136;47.032;15.398;2023-08-24T14:29:56;97472.22;;;34.16;50.16
12146;BME280;6136;47.032;15.398;2023-08-24T14:32:26;97474.50;;;33.63;51.29